Heathrow, Florida
Current Conditions -  °F | °C
As of 11:01 AM on Monday 24 Nov 2014 (Local Time) from KSFB Reporting Station
Broken Clouds Broken Clouds  
Wind Chill: 81°   Ceiling: 3200
Heat Index: 85°   Visibility: 10mi
Dew Point: 71°   Wind: 10mph
Humidity: 72%   Direction: 210°SSW
Pressure: 29.98"   Gusts: NA
Location:  28.7595°N, 81.3431°W
Report Text: KSFB 241601Z 21009KT 10SM FEW021 BKN032 27/22 A2998 RMK AO2 T02720217
Loading
Personal Weather Stations






























Interactive Weather Map New forecast layout! Learn more

10-Day Weather Forecast

Advertisements
Track Severe Weather on mobile